sensor_id;sensor_type;location;lat;lon;timestamp;P1;durP1;ratioP1;P2;durP2;ratioP2
75499;SDS011;64076;51.466;7.260;2023-06-01T00:00:29;5.47;;;3.10;;
75499;SDS011;64076;51.466;7.260;2023-06-01T00:02:55;4.65;;;2.80;;
75499;SDS011;64076;51.466;7.260;2023-06-01T00:05:21;4.90;;;3.03;;
75499;SDS011;64076;51.466;7.260;2023-06-01T00:07:46;6.35;;;3.33;;
75499;SDS011;64076;51.466;7.260;2023-06-01T00:10:12;5.30;;;3.30;;
75499;SDS011;64076;51.466;7.260;2023-06-01T00:12:38;5.47;;;3.20;;
75499;SDS011;64076;51.466;7.260;2023-06-01T00:15:04;6.43;;;3.57;;
75499;SDS011;64076;51.466;7.260;2023-06-01T00:17:30;5.93;;;3.38;;
75499;SDS011;64076;51.466;7.260;2023-06-01T00:19:56;5.95;;;3.30;;
75499;SDS011;64076;51.466;7.260;2023-06-01T00:22:22;5.83;;;3.50;;
75499;SDS011;64076;51.466;7.260;2023-06-01T00:24:49;5.03;;;3.28;;
75499;SDS011;64076;51.466;7.260;2023-06-01T00:27:15;4.78;;;3.10;;
75499;SDS011;64076;51.466;7.260;2023-06-01T00:29:40;5.50;;;3.17;;
75499;SDS011;64076;51.466;7.260;2023-06-01T00:32:06;5.75;;;3.45;;
75499;SDS011;64076;51.466;7.260;2023-06-01T00:34:32;6.73;;;3.47;;
75499;SDS011;64076;51.466;7.260;2023-06-01T00:36:57;7.50;;;3.75;;
75499;SDS011;64076;51.466;7.260;2023-06-01T00:39:23;6.87;;;3.33;;
75499;SDS011;64076;51.466;7.260;2023-06-01T00:41:48;6.80;;;3.67;;
75499;SDS011;64076;51.466;7.260;2023-06-01T00:44:14;6.75;;;3.80;;
75499;SDS011;64076;51.466;7.260;2023-06-01T00:46:39;6.47;;;3.37;;
75499;SDS011;64076;51.466;7.260;2023-06-01T00:49:05;5.43;;;3.10;;
75499;SDS011;64076;51.466;7.260;2023-06-01T00:51:32;6.78;;;3.90;;
75499;SDS011;64076;51.466;7.260;2023-06-01T00:53:59;6.97;;;3.70;;
75499;SDS011;64076;51.466;7.260;2023-06-01T00:56:25;7.18;;;3.63;;
75499;SDS011;64076;51.466;7.260;2023-06-01T00:58:51;6.63;;;3.80;;
75499;SDS011;64076;51.466;7.260;2023-06-01T01:01:17;9.13;;;4.15;;
75499;SDS011;64076;51.466;7.260;2023-06-01T01:03:50;5.63;;;3.72;;
75499;SDS011;64076;51.466;7.260;2023-06-01T01:06:27;7.37;;;3.90;;
75499;SDS011;64076;51.466;7.260;2023-06-01T01:09:32;6.03;;;3.72;;
75499;SDS011;64076;51.466;7.260;2023-06-01T01:12:14;6.68;;;3.65;;
75499;SDS011;64076;51.466;7.260;2023-06-01T01:14:50;6.18;;;3.50;;
75499;SDS011;64076;51.466;7.260;2023-06-01T01:17:36;6.75;;;3.90;;
75499;SDS011;64076;51.466;7.260;2023-06-01T01:25:35;7.18;;;4.00;;
75499;SDS011;64076;51.466;7.260;2023-06-01T01:31:12;6.90;;;4.43;;
75499;SDS011;64076;51.466;7.260;2023-06-01T01:33:41;8.23;;;4.30;;
75499;SDS011;64076;51.466;7.260;2023-06-01T01:36:08;8.20;;;4.53;;
75499;SDS011;64076;51.466;7.260;2023-06-01T01:38:35;8.88;;;4.82;;
75499;SDS011;64076;51.466;7.260;2023-06-01T01:41:01;8.35;;;4.80;;
75499;SDS011;64076;51.466;7.260;2023-06-01T01:43:27;10.20;;;5.00;;
75499;SDS011;64076;51.466;7.260;2023-06-01T01:46:03;6.33;;;4.23;;
75499;SDS011;64076;51.466;7.260;2023-06-01T01:49:07;6.22;;;4.28;;
75499;SDS011;64076;51.466;7.260;2023-06-01T01:54:27;6.43;;;4.45;;
75499;SDS011;64076;51.466;7.260;2023-06-01T01:56:53;8.27;;;4.65;;
75499;SDS011;64076;51.466;7.260;2023-06-01T01:59:20;6.97;;;4.70;;
75499;SDS011;64076;51.466;7.260;2023-06-01T02:01:46;6.75;;;4.53;;
75499;SDS011;64076;51.466;7.260;2023-06-01T02:04:12;5.87;;;4.53;;
75499;SDS011;64076;51.466;7.260;2023-06-01T02:06:37;8.07;;;4.47;;
75499;SDS011;64076;51.466;7.260;2023-06-01T02:09:03;9.00;;;5.23;;
75499;SDS011;64076;51.466;7.260;2023-06-01T02:11:35;7.30;;;4.97;;
75499;SDS011;64076;51.466;7.260;2023-06-01T02:14:01;9.35;;;5.05;;
75499;SDS011;64076;51.466;7.260;2023-06-01T02:16:27;7.80;;;5.13;;
75499;SDS011;64076;51.466;7.260;2023-06-01T02:18:52;9.43;;;5.53;;
75499;SDS011;64076;51.466;7.260;2023-06-01T02:21:18;10.23;;;5.50;;
75499;SDS011;64076;51.466;7.260;2023-06-01T02:23:44;7.88;;;5.65;;
75499;SDS011;64076;51.466;7.260;2023-06-01T02:26:09;8.90;;;5.37;;
75499;SDS011;64076;51.466;7.260;2023-06-01T02:28:36;10.70;;;5.88;;
75499;SDS011;64076;51.466;7.260;2023-06-01T02:31:03;9.20;;;5.75;;
75499;SDS011;64076;51.466;7.260;2023-06-01T02:33:29;9.52;;;6.03;;
75499;SDS011;64076;51.466;7.260;2023-06-01T02:35:54;9.70;;;5.90;;
75499;SDS011;64076;51.466;7.260;2023-06-01T02:38:20;9.90;;;6.17;;
75499;SDS011;64076;51.466;7.260;2023-06-01T02:40:45;10.13;;;5.93;;
75499;SDS011;64076;51.466;7.260;2023-06-01T02:43:11;10.40;;;6.97;;
75499;SDS011;64076;51.466;7.260;2023-06-01T02:45:36;9.63;;;6.50;;
75499;SDS011;64076;51.466;7.260;2023-06-01T02:48:03;12.13;;;6.78;;
75499;SDS011;64076;51.466;7.260;2023-06-01T02:50:29;9.48;;;6.03;;
75499;SDS011;64076;51.466;7.260;2023-06-01T02:52:54;10.63;;;7.37;;
75499;SDS011;64076;51.466;7.260;2023-06-01T02:55:20;9.90;;;6.47;;
75499;SDS011;64076;51.466;7.260;2023-06-01T02:57:46;10.00;;;6.80;;
75499;SDS011;64076;51.466;7.260;2023-06-01T03:00:11;12.60;;;7.13;;
75499;SDS011;64076;51.466;7.260;2023-06-01T03:02:46;12.52;;;7.28;;
75499;SDS011;64076;51.466;7.260;2023-06-01T03:05:12;13.48;;;7.05;;
75499;SDS011;64076;51.466;7.260;2023-06-01T03:07:42;11.10;;;6.85;;
75499;SDS011;64076;51.466;7.260;2023-06-01T03:10:08;12.07;;;7.60;;
75499;SDS011;64076;51.466;7.260;2023-06-01T03:12:34;9.57;;;6.88;;
75499;SDS011;64076;51.466;7.260;2023-06-01T03:15:00;12.77;;;7.67;;
75499;SDS011;64076;51.466;7.260;2023-06-01T03:17:25;11.43;;;7.78;;
75499;SDS011;64076;51.466;7.260;2023-06-01T03:19:51;11.87;;;8.27;;
75499;SDS011;64076;51.466;7.260;2023-06-01T03:22:16;13.03;;;7.47;;
75499;SDS011;64076;51.466;7.260;2023-06-01T03:24:42;15.55;;;8.02;;
75499;SDS011;64076;51.466;7.260;2023-06-01T03:27:09;11.50;;;7.25;;
75499;SDS011;64076;51.466;7.260;2023-06-01T03:29:35;13.23;;;7.97;;
75499;SDS011;64076;51.466;7.260;2023-06-01T03:32:01;13.10;;;8.70;;
75499;SDS011;64076;51.466;7.260;2023-06-01T03:34:26;15.97;;;8.20;;
75499;SDS011;64076;51.466;7.260;2023-06-01T03:36:52;14.97;;;8.97;;
75499;SDS011;64076;51.466;7.260;2023-06-01T03:39:18;12.23;;;8.23;;
75499;SDS011;64076;51.466;7.260;2023-06-01T03:41:44;12.30;;;8.32;;
75499;SDS011;64076;51.466;7.260;2023-06-01T03:44:10;12.10;;;8.33;;
75499;SDS011;64076;51.466;7.260;2023-06-01T03:46:36;13.95;;;8.73;;
75499;SDS011;64076;51.466;7.260;2023-06-01T03:49:02;14.52;;;9.00;;
75499;SDS011;64076;51.466;7.260;2023-06-01T03:51:29;14.63;;;9.18;;
75499;SDS011;64076;51.466;7.260;2023-06-01T03:53:55;14.03;;;8.57;;
75499;SDS011;64076;51.466;7.260;2023-06-01T03:56:20;14.13;;;8.40;;
75499;SDS011;64076;51.466;7.260;2023-06-01T03:58:47;13.23;;;8.68;;
75499;SDS011;64076;51.466;7.260;2023-06-01T04:01:12;14.57;;;9.23;;
75499;SDS011;64076;51.466;7.260;2023-06-01T04:03:41;14.25;;;9.10;;
75499;SDS011;64076;51.466;7.260;2023-06-01T04:06:08;12.37;;;8.17;;
75499;SDS011;64076;51.466;7.260;2023-06-01T04:08:37;15.43;;;8.63;;
75499;SDS011;64076;51.466;7.260;2023-06-01T04:11:12;12.77;;;9.35;;
75499;SDS011;64076;51.466;7.260;2023-06-01T04:13:38;12.23;;;8.40;;
75499;SDS011;64076;51.466;7.260;2023-06-01T04:16:04;12.93;;;8.73;;
75499;SDS011;64076;51.466;7.260;2023-06-01T04:18:29;16.42;;;9.38;;
75499;SDS011;64076;51.466;7.260;2023-06-01T04:20:55;16.00;;;9.20;;
75499;SDS011;64076;51.466;7.260;2023-06-01T04:23:21;16.05;;;9.75;;
75499;SDS011;64076;51.466;7.260;2023-06-01T04:25:47;15.07;;;9.18;;
75499;SDS011;64076;51.466;7.260;2023-06-01T04:28:15;15.20;;;9.50;;
75499;SDS011;64076;51.466;7.260;2023-06-01T04:30:42;15.88;;;9.25;;
75499;SDS011;64076;51.466;7.260;2023-06-01T04:33:09;18.35;;;10.05;;
75499;SDS011;64076;51.466;7.260;2023-06-01T04:35:35;15.30;;;9.77;;
75499;SDS011;64076;51.466;7.260;2023-06-01T04:38:02;15.23;;;10.07;;
75499;SDS011;64076;51.466;7.260;2023-06-01T04:40:27;15.50;;;9.98;;
75499;SDS011;64076;51.466;7.260;2023-06-01T04:42:53;16.48;;;10.70;;
75499;SDS011;64076;51.466;7.260;2023-06-01T04:45:21;15.30;;;10.47;;
75499;SDS011;64076;51.466;7.260;2023-06-01T04:47:48;14.10;;;10.40;;
75499;SDS011;64076;51.466;7.260;2023-06-01T04:50:15;17.85;;;11.57;;
75499;SDS011;64076;51.466;7.260;2023-06-01T04:52:41;17.20;;;11.40;;
75499;SDS011;64076;51.466;7.260;2023-06-01T04:55:07;18.02;;;11.75;;
75499;SDS011;64076;51.466;7.260;2023-06-01T04:57:34;17.37;;;12.20;;
75499;SDS011;64076;51.466;7.260;2023-06-01T05:00:01;18.27;;;11.93;;
75499;SDS011;64076;51.466;7.260;2023-06-01T05:02:31;18.65;;;12.30;;
75499;SDS011;64076;51.466;7.260;2023-06-01T05:04:56;18.70;;;11.93;;
75499;SDS011;64076;51.466;7.260;2023-06-01T05:07:22;19.92;;;12.30;;
75499;SDS011;64076;51.466;7.260;2023-06-01T05:09:49;20.33;;;12.83;;
75499;SDS011;64076;51.466;7.260;2023-06-01T05:12:15;20.33;;;12.95;;
75499;SDS011;64076;51.466;7.260;2023-06-01T05:14:40;20.27;;;12.50;;
75499;SDS011;64076;51.466;7.260;2023-06-01T05:17:06;19.13;;;12.50;;
75499;SDS011;64076;51.466;7.260;2023-06-01T05:19:31;18.33;;;12.48;;
75499;SDS011;64076;51.466;7.260;2023-06-01T05:21:57;17.97;;;11.30;;
75499;SDS011;64076;51.466;7.260;2023-06-01T05:24:22;17.50;;;11.13;;
75499;SDS011;64076;51.466;7.260;2023-06-01T05:26:48;17.10;;;11.03;;
75499;SDS011;64076;51.466;7.260;2023-06-01T05:29:13;16.43;;;10.97;;
75499;SDS011;64076;51.466;7.260;2023-06-01T05:31:39;16.70;;;10.27;;
75499;SDS011;64076;51.466;7.260;2023-06-01T05:34:05;15.63;;;10.38;;
75499;SDS011;64076;51.466;7.260;2023-06-01T05:36:31;14.80;;;9.63;;
75499;SDS011;64076;51.466;7.260;2023-06-01T05:38:57;13.98;;;9.05;;
75499;SDS011;64076;51.466;7.260;2023-06-01T05:41:23;14.32;;;9.70;;
75499;SDS011;64076;51.466;7.260;2023-06-01T05:43:48;13.57;;;9.13;;
75499;SDS011;64076;51.466;7.260;2023-06-01T05:46:15;12.48;;;8.55;;
75499;SDS011;64076;51.466;7.260;2023-06-01T05:48:41;12.13;;;7.73;;
75499;SDS011;64076;51.466;7.260;2023-06-01T05:51:07;12.13;;;8.20;;
75499;SDS011;64076;51.466;7.260;2023-06-01T05:53:32;14.27;;;9.10;;
75499;SDS011;64076;51.466;7.260;2023-06-01T05:55:57;11.53;;;7.80;;
75499;SDS011;64076;51.466;7.260;2023-06-01T05:58:23;11.50;;;7.40;;
75499;SDS011;64076;51.466;7.260;2023-06-01T06:00:48;10.27;;;6.93;;
75499;SDS011;64076;51.466;7.260;2023-06-01T06:03:14;9.43;;;6.47;;
75499;SDS011;64076;51.466;7.260;2023-06-01T06:05:40;11.80;;;7.30;;
75499;SDS011;64076;51.466;7.260;2023-06-01T06:08:05;11.48;;;7.72;;
75499;SDS011;64076;51.466;7.260;2023-06-01T06:10:31;12.40;;;7.87;;
75499;SDS011;64076;51.466;7.260;2023-06-01T06:12:56;10.30;;;6.97;;
75499;SDS011;64076;51.466;7.260;2023-06-01T06:15:22;11.15;;;7.68;;
75499;SDS011;64076;51.466;7.260;2023-06-01T06:17:47;9.43;;;6.67;;
75499;SDS011;64076;51.466;7.260;2023-06-01T06:20:13;10.90;;;7.07;;
75499;SDS011;64076;51.466;7.260;2023-06-01T06:22:40;10.73;;;7.85;;
75499;SDS011;64076;51.466;7.260;2023-06-01T06:25:06;9.50;;;6.47;;
75499;SDS011;64076;51.466;7.260;2023-06-01T06:27:32;9.70;;;6.65;;
75499;SDS011;64076;51.466;7.260;2023-06-01T06:29:57;8.43;;;6.23;;
75499;SDS011;64076;51.466;7.260;2023-06-01T06:32:23;9.93;;;6.67;;
75499;SDS011;64076;51.466;7.260;2023-06-01T06:34:48;9.15;;;6.68;;
75499;SDS011;64076;51.466;7.260;2023-06-01T06:37:14;9.40;;;6.70;;
75499;SDS011;64076;51.466;7.260;2023-06-01T06:39:40;10.23;;;6.80;;
75499;SDS011;64076;51.466;7.260;2023-06-01T06:42:05;8.40;;;6.07;;
75499;SDS011;64076;51.466;7.260;2023-06-01T06:44:31;8.97;;;6.20;;
75499;SDS011;64076;51.466;7.260;2023-06-01T06:46:58;7.95;;;5.93;;
75499;SDS011;64076;51.466;7.260;2023-06-01T06:49:25;8.55;;;6.40;;
75499;SDS011;64076;51.466;7.260;2023-06-01T06:51:51;9.43;;;6.80;;
75499;SDS011;64076;51.466;7.260;2023-06-01T06:54:16;8.93;;;6.20;;
75499;SDS011;64076;51.466;7.260;2023-06-01T06:56:42;8.47;;;5.63;;
75499;SDS011;64076;51.466;7.260;2023-06-01T06:59:08;7.88;;;5.43;;
75499;SDS011;64076;51.466;7.260;2023-06-01T07:01:34;8.70;;;5.70;;
75499;SDS011;64076;51.466;7.260;2023-06-01T07:04:00;8.18;;;5.55;;
75499;SDS011;64076;51.466;7.260;2023-06-01T07:06:26;6.97;;;5.55;;
75499;SDS011;64076;51.466;7.260;2023-06-01T07:08:52;7.27;;;5.40;;
75499;SDS011;64076;51.466;7.260;2023-06-01T07:11:18;7.40;;;5.40;;
75499;SDS011;64076;51.466;7.260;2023-06-01T07:13:44;7.97;;;5.47;;
75499;SDS011;64076;51.466;7.260;2023-06-01T07:16:09;7.28;;;5.28;;
75499;SDS011;64076;51.466;7.260;2023-06-01T07:18:36;6.90;;;5.17;;
75499;SDS011;64076;51.466;7.260;2023-06-01T07:21:02;7.82;;;5.78;;
75499;SDS011;64076;51.466;7.260;2023-06-01T07:23:27;7.50;;;6.22;;
75499;SDS011;64076;51.466;7.260;2023-06-01T07:25:53;6.97;;;5.30;;
75499;SDS011;64076;51.466;7.260;2023-06-01T07:28:18;6.50;;;5.63;;
75499;SDS011;64076;51.466;7.260;2023-06-01T07:30:44;7.63;;;5.55;;
75499;SDS011;64076;51.466;7.260;2023-06-01T07:33:09;7.80;;;6.27;;
75499;SDS011;64076;51.466;7.260;2023-06-01T07:35:35;8.20;;;6.00;;
75499;SDS011;64076;51.466;7.260;2023-06-01T07:38:01;7.60;;;5.67;;
75499;SDS011;64076;51.466;7.260;2023-06-01T07:40:28;8.70;;;6.50;;
75499;SDS011;64076;51.466;7.260;2023-06-01T07:42:55;8.45;;;5.60;;
75499;SDS011;64076;51.466;7.260;2023-06-01T07:45:21;8.53;;;5.67;;
75499;SDS011;64076;51.466;7.260;2023-06-01T07:47:47;9.05;;;6.53;;
75499;SDS011;64076;51.466;7.260;2023-06-01T07:50:12;8.30;;;5.87;;
75499;SDS011;64076;51.466;7.260;2023-06-01T07:52:38;10.55;;;6.53;;
75499;SDS011;64076;51.466;7.260;2023-06-01T07:55:04;9.32;;;5.88;;
75499;SDS011;64076;51.466;7.260;2023-06-01T07:57:30;10.03;;;5.67;;
75499;SDS011;64076;51.466;7.260;2023-06-01T07:59:55;10.77;;;6.15;;
75499;SDS011;64076;51.466;7.260;2023-06-01T08:02:21;9.07;;;5.67;;
75499;SDS011;64076;51.466;7.260;2023-06-01T08:04:47;10.53;;;6.30;;
75499;SDS011;64076;51.466;7.260;2023-06-01T08:07:13;14.13;;;7.37;;
75499;SDS011;64076;51.466;7.260;2023-06-01T08:09:41;9.00;;;6.03;;
75499;SDS011;64076;51.466;7.260;2023-06-01T08:12:07;8.20;;;5.40;;
75499;SDS011;64076;51.466;7.260;2023-06-01T08:14:33;13.87;;;6.97;;
75499;SDS011;64076;51.466;7.260;2023-06-01T08:16:59;8.90;;;5.03;;
75499;SDS011;64076;51.466;7.260;2023-06-01T08:19:26;8.60;;;5.60;;
75499;SDS011;64076;51.466;7.260;2023-06-01T08:21:52;10.38;;;5.60;;
75499;SDS011;64076;51.466;7.260;2023-06-01T08:24:18;8.95;;;5.53;;
75499;SDS011;64076;51.466;7.260;2023-06-01T08:26:47;8.07;;;5.95;;
75499;SDS011;64076;51.466;7.260;2023-06-01T08:29:13;8.50;;;5.23;;
75499;SDS011;64076;51.466;7.260;2023-06-01T08:31:38;9.43;;;6.05;;
75499;SDS011;64076;51.466;7.260;2023-06-01T08:34:04;11.00;;;5.93;;
75499;SDS011;64076;51.466;7.260;2023-06-01T08:36:30;8.88;;;5.50;;
75499;SDS011;64076;51.466;7.260;2023-06-01T08:38:56;8.53;;;5.70;;
75499;SDS011;64076;51.466;7.260;2023-06-01T08:41:26;10.27;;;6.15;;
75499;SDS011;64076;51.466;7.260;2023-06-01T08:44:03;11.10;;;5.97;;
75499;SDS011;64076;51.466;7.260;2023-06-01T08:46:32;10.95;;;7.10;;
75499;SDS011;64076;51.466;7.260;2023-06-01T08:48:59;10.40;;;5.88;;
75499;SDS011;64076;51.466;7.260;2023-06-01T08:51:25;11.13;;;5.60;;
75499;SDS011;64076;51.466;7.260;2023-06-01T08:53:53;11.20;;;5.90;;
75499;SDS011;64076;51.466;7.260;2023-06-01T08:56:20;10.98;;;6.50;;
75499;SDS011;64076;51.466;7.260;2023-06-01T08:58:48;8.65;;;5.50;;
75499;SDS011;64076;51.466;7.260;2023-06-01T09:01:18;9.85;;;5.38;;
75499;SDS011;64076;51.466;7.260;2023-06-01T09:03:46;9.27;;;5.53;;
75499;SDS011;64076;51.466;7.260;2023-06-01T09:06:12;9.77;;;5.70;;
75499;SDS011;64076;51.466;7.260;2023-06-01T09:08:38;8.25;;;5.95;;
75499;SDS011;64076;51.466;7.260;2023-06-01T09:11:03;14.03;;;6.37;;
75499;SDS011;64076;51.466;7.260;2023-06-01T09:16:01;8.77;;;6.07;;
75499;SDS011;64076;51.466;7.260;2023-06-01T09:18:27;9.27;;;6.00;;
75499;SDS011;64076;51.466;7.260;2023-06-01T09:20:53;8.30;;;5.30;;
75499;SDS011;64076;51.466;7.260;2023-06-01T09:23:24;7.50;;;5.00;;
75499;SDS011;64076;51.466;7.260;2023-06-01T09:34:08;11.77;;;6.17;;
75499;SDS011;64076;51.466;7.260;2023-06-01T09:36:36;8.60;;;5.30;;
75499;SDS011;64076;51.466;7.260;2023-06-01T09:44:14;9.25;;;5.40;;
75499;SDS011;64076;51.466;7.260;2023-06-01T09:46:47;16.57;;;5.10;;
75499;SDS011;64076;51.466;7.260;2023-06-01T09:49:17;10.52;;;5.60;;
75499;SDS011;64076;51.466;7.260;2023-06-01T09:51:45;10.93;;;6.47;;
75499;SDS011;64076;51.466;7.260;2023-06-01T09:54:20;15.77;;;7.60;;
75499;SDS011;64076;51.466;7.260;2023-06-01T09:56:47;9.87;;;5.50;;
75499;SDS011;64076;51.466;7.260;2023-06-01T09:59:13;15.75;;;5.45;;
75499;SDS011;64076;51.466;7.260;2023-06-01T10:01:39;9.60;;;4.78;;
75499;SDS011;64076;51.466;7.260;2023-06-01T10:04:07;13.00;;;6.67;;
75499;SDS011;64076;51.466;7.260;2023-06-01T10:06:35;11.55;;;6.45;;
75499;SDS011;64076;51.466;7.260;2023-06-01T10:09:06;13.32;;;6.35;;
75499;SDS011;64076;51.466;7.260;2023-06-01T10:11:39;9.68;;;4.82;;
75499;SDS011;64076;51.466;7.260;2023-06-01T10:14:04;11.27;;;6.30;;
75499;SDS011;64076;51.466;7.260;2023-06-01T10:16:30;7.72;;;4.85;;
75499;SDS011;64076;51.466;7.260;2023-06-01T10:18:57;6.93;;;4.47;;
75499;SDS011;64076;51.466;7.260;2023-06-01T10:21:23;7.20;;;4.03;;
75499;SDS011;64076;51.466;7.260;2023-06-01T10:23:49;7.18;;;4.05;;
75499;SDS011;64076;51.466;7.260;2023-06-01T10:26:15;7.07;;;4.63;;
75499;SDS011;64076;51.466;7.260;2023-06-01T10:28:44;7.77;;;4.60;;
75499;SDS011;64076;51.466;7.260;2023-06-01T10:34:03;8.77;;;4.00;;
75499;SDS011;64076;51.466;7.260;2023-06-01T10:39:27;6.38;;;3.78;;
75499;SDS011;64076;51.466;7.260;2023-06-01T10:41:57;5.37;;;3.93;;
75499;SDS011;64076;51.466;7.260;2023-06-01T10:57:38;6.82;;;3.70;;
75499;SDS011;64076;51.466;7.260;2023-06-01T11:00:20;8.40;;;3.93;;
75499;SDS011;64076;51.466;7.260;2023-06-01T11:02:54;6.00;;;4.18;;
75499;SDS011;64076;51.466;7.260;2023-06-01T11:08:06;7.95;;;3.70;;
75499;SDS011;64076;51.466;7.260;2023-06-01T11:13:21;7.07;;;3.93;;
75499;SDS011;64076;51.466;7.260;2023-06-01T11:18:49;6.00;;;3.85;;
75499;SDS011;64076;51.466;7.260;2023-06-01T11:21:30;7.07;;;4.30;;
75499;SDS011;64076;51.466;7.260;2023-06-01T11:24:00;7.90;;;4.78;;
75499;SDS011;64076;51.466;7.260;2023-06-01T11:26:31;7.37;;;4.97;;
75499;SDS011;64076;51.466;7.260;2023-06-01T11:29:18;7.55;;;5.13;;
75499;SDS011;64076;51.466;7.260;2023-06-01T11:31:49;8.70;;;5.35;;
75499;SDS011;64076;51.466;7.260;2023-06-01T11:34:19;7.65;;;4.90;;
75499;SDS011;64076;51.466;7.260;2023-06-01T11:36:55;7.40;;;5.22;;
75499;SDS011;64076;51.466;7.260;2023-06-01T11:39:23;7.70;;;5.37;;
75499;SDS011;64076;51.466;7.260;2023-06-01T11:44:58;7.13;;;5.13;;
75499;SDS011;64076;51.466;7.260;2023-06-01T11:47:27;6.70;;;4.88;;
75499;SDS011;64076;51.466;7.260;2023-06-01T11:49:54;6.55;;;4.80;;
75499;SDS011;64076;51.466;7.260;2023-06-01T11:52:20;8.40;;;4.97;;
75499;SDS011;64076;51.466;7.260;2023-06-01T11:54:46;6.57;;;5.03;;
75499;SDS011;64076;51.466;7.260;2023-06-01T11:57:13;6.20;;;4.93;;
75499;SDS011;64076;51.466;7.260;2023-06-01T11:59:39;7.77;;;4.87;;
75499;SDS011;64076;51.466;7.260;2023-06-01T12:02:20;6.53;;;4.57;;
75499;SDS011;64076;51.466;7.260;2023-06-01T12:05:08;7.05;;;4.60;;
75499;SDS011;64076;51.466;7.260;2023-06-01T12:07:44;4.70;;;3.97;;
75499;SDS011;64076;51.466;7.260;2023-06-01T12:10:15;7.55;;;4.70;;
75499;SDS011;64076;51.466;7.260;2023-06-01T12:12:43;6.33;;;4.40;;
75499;SDS011;64076;51.466;7.260;2023-06-01T12:15:13;6.25;;;4.70;;
75499;SDS011;64076;51.466;7.260;2023-06-01T12:20:19;6.28;;;4.30;;
75499;SDS011;64076;51.466;7.260;2023-06-01T12:22:50;6.70;;;4.70;;
75499;SDS011;64076;51.466;7.260;2023-06-01T12:25:16;6.43;;;4.60;;
75499;SDS011;64076;51.466;7.260;2023-06-01T12:27:41;8.57;;;5.70;;
75499;SDS011;64076;51.466;7.260;2023-06-01T12:30:19;8.03;;;5.00;;
75499;SDS011;64076;51.466;7.260;2023-06-01T12:32:45;8.27;;;4.88;;
75499;SDS011;64076;51.466;7.260;2023-06-01T12:35:11;7.93;;;5.70;;
75499;SDS011;64076;51.466;7.260;2023-06-01T12:37:37;9.70;;;5.68;;
75499;SDS011;64076;51.466;7.260;2023-06-01T12:40:02;11.00;;;6.10;;
75499;SDS011;64076;51.466;7.260;2023-06-01T12:42:38;9.85;;;5.15;;
75499;SDS011;64076;51.466;7.260;2023-06-01T12:45:06;7.47;;;5.47;;
75499;SDS011;64076;51.466;7.260;2023-06-01T12:47:38;8.95;;;5.28;;
75499;SDS011;64076;51.466;7.260;2023-06-01T12:50:05;13.18;;;7.43;;
75499;SDS011;64076;51.466;7.260;2023-06-01T12:52:35;11.35;;;6.75;;
75499;SDS011;64076;51.466;7.260;2023-06-01T12:55:01;10.13;;;6.57;;
75499;SDS011;64076;51.466;7.260;2023-06-01T12:57:28;14.77;;;6.80;;
75499;SDS011;64076;51.466;7.260;2023-06-01T12:59:54;17.77;;;7.95;;
75499;SDS011;64076;51.466;7.260;2023-06-01T13:02:20;11.27;;;6.85;;
75499;SDS011;64076;51.466;7.260;2023-06-01T13:04:46;10.37;;;5.80;;
75499;SDS011;64076;51.466;7.260;2023-06-01T13:07:11;11.43;;;6.15;;
75499;SDS011;64076;51.466;7.260;2023-06-01T13:09:37;11.33;;;6.60;;
75499;SDS011;64076;51.466;7.260;2023-06-01T13:12:03;9.57;;;5.83;;
75499;SDS011;64076;51.466;7.260;2023-06-01T13:14:29;9.75;;;6.28;;
75499;SDS011;64076;51.466;7.260;2023-06-01T13:16:56;7.90;;;5.60;;
75499;SDS011;64076;51.466;7.260;2023-06-01T13:19:23;7.18;;;5.40;;
75499;SDS011;64076;51.466;7.260;2023-06-01T13:21:50;14.60;;;7.63;;
75499;SDS011;64076;51.466;7.260;2023-06-01T13:24:16;23.95;;;13.85;;
75499;SDS011;64076;51.466;7.260;2023-06-01T13:26:42;14.07;;;7.30;;
75499;SDS011;64076;51.466;7.260;2023-06-01T13:29:09;10.60;;;5.83;;
75499;SDS011;64076;51.466;7.260;2023-06-01T13:31:35;14.73;;;6.32;;
75499;SDS011;64076;51.466;7.260;2023-06-01T13:34:02;10.65;;;5.72;;
75499;SDS011;64076;51.466;7.260;2023-06-01T13:36:28;13.32;;;6.43;;
75499;SDS011;64076;51.466;7.260;2023-06-01T13:38:54;11.00;;;5.68;;
75499;SDS011;64076;51.466;7.260;2023-06-01T13:41:20;11.53;;;5.70;;
75499;SDS011;64076;51.466;7.260;2023-06-01T13:43:47;7.82;;;4.95;;
75499;SDS011;64076;51.466;7.260;2023-06-01T13:46:13;8.88;;;5.03;;
75499;SDS011;64076;51.466;7.260;2023-06-01T13:48:38;11.03;;;5.43;;
75499;SDS011;64076;51.466;7.260;2023-06-01T13:51:04;8.97;;;4.97;;
75499;SDS011;64076;51.466;7.260;2023-06-01T13:53:30;10.20;;;4.38;;
75499;SDS011;64076;51.466;7.260;2023-06-01T13:55:57;10.40;;;4.70;;
75499;SDS011;64076;51.466;7.260;2023-06-01T13:58:24;8.52;;;4.38;;
75499;SDS011;64076;51.466;7.260;2023-06-01T14:00:49;8.00;;;4.53;;
75499;SDS011;64076;51.466;7.260;2023-06-01T14:03:15;8.37;;;4.70;;
75499;SDS011;64076;51.466;7.260;2023-06-01T14:05:40;7.25;;;4.32;;
75499;SDS011;64076;51.466;7.260;2023-06-01T14:08:06;7.57;;;4.93;;
75499;SDS011;64076;51.466;7.260;2023-06-01T14:10:32;11.25;;;5.10;;
75499;SDS011;64076;51.466;7.260;2023-06-01T14:12:59;9.73;;;5.57;;
75499;SDS011;64076;51.466;7.260;2023-06-01T14:15:25;7.43;;;4.75;;
75499;SDS011;64076;51.466;7.260;2023-06-01T14:17:51;9.37;;;5.73;;
75499;SDS011;64076;51.466;7.260;2023-06-01T14:20:17;7.80;;;3.97;;
75499;SDS011;64076;51.466;7.260;2023-06-01T14:22:42;7.23;;;4.60;;
75499;SDS011;64076;51.466;7.260;2023-06-01T14:25:08;9.13;;;6.20;;
75499;SDS011;64076;51.466;7.260;2023-06-01T14:27:33;9.93;;;5.50;;
75499;SDS011;64076;51.466;7.260;2023-06-01T14:30:01;7.78;;;5.20;;
75499;SDS011;64076;51.466;7.260;2023-06-01T14:32:28;7.85;;;4.93;;
75499;SDS011;64076;51.466;7.260;2023-06-01T14:34:54;7.57;;;4.63;;
75499;SDS011;64076;51.466;7.260;2023-06-01T14:37:19;6.53;;;5.15;;
75499;SDS011;64076;51.466;7.260;2023-06-01T14:39:45;8.23;;;5.47;;
75499;SDS011;64076;51.466;7.260;2023-06-01T14:42:11;7.15;;;5.03;;
75499;SDS011;64076;51.466;7.260;2023-06-01T14:44:37;8.67;;;5.33;;
75499;SDS011;64076;51.466;7.260;2023-06-01T14:47:02;6.67;;;5.03;;
75499;SDS011;64076;51.466;7.260;2023-06-01T14:49:28;11.77;;;6.35;;
75499;SDS011;64076;51.466;7.260;2023-06-01T14:51:53;13.37;;;7.43;;
75499;SDS011;64076;51.466;7.260;2023-06-01T14:54:20;12.10;;;6.68;;
75499;SDS011;64076;51.466;7.260;2023-06-01T14:56:45;8.40;;;6.30;;
75499;SDS011;64076;51.466;7.260;2023-06-01T14:59:11;10.82;;;5.85;;
75499;SDS011;64076;51.466;7.260;2023-06-01T15:01:36;9.17;;;5.70;;
75499;SDS011;64076;51.466;7.260;2023-06-01T15:04:02;8.10;;;5.33;;
75499;SDS011;64076;51.466;7.260;2023-06-01T15:06:27;10.27;;;5.93;;
75499;SDS011;64076;51.466;7.260;2023-06-01T15:08:53;10.87;;;6.20;;
75499;SDS011;64076;51.466;7.260;2023-06-01T15:11:19;10.25;;;5.65;;
75499;SDS011;64076;51.466;7.260;2023-06-01T15:13:45;8.20;;;5.47;;
75499;SDS011;64076;51.466;7.260;2023-06-01T15:16:11;7.88;;;5.55;;
75499;SDS011;64076;51.466;7.260;2023-06-01T15:18:36;8.20;;;5.07;;
75499;SDS011;64076;51.466;7.260;2023-06-01T15:21:02;7.90;;;5.50;;
75499;SDS011;64076;51.466;7.260;2023-06-01T15:23:27;14.27;;;5.97;;
75499;SDS011;64076;51.466;7.260;2023-06-01T15:25:53;7.13;;;5.40;;
75499;SDS011;64076;51.466;7.260;2023-06-01T15:28:19;8.75;;;5.43;;
75499;SDS011;64076;51.466;7.260;2023-06-01T15:30:44;7.60;;;5.10;;
75499;SDS011;64076;51.466;7.260;2023-06-01T15:33:10;8.48;;;5.57;;
75499;SDS011;64076;51.466;7.260;2023-06-01T15:35:36;6.97;;;5.10;;
75499;SDS011;64076;51.466;7.260;2023-06-01T15:38:04;9.15;;;5.45;;
75499;SDS011;64076;51.466;7.260;2023-06-01T15:40:30;7.80;;;5.10;;